sensor_id;sensor_type;location;lat;lon;timestamp;P1;durP1;ratioP1;P2;durP2;ratioP2
27383;SDS011;14851;51.166;4.760;2023-05-27T00:01:30;14.70;;;4.57;;
27383;SDS011;14851;51.166;4.760;2023-05-27T00:03:56;14.98;;;3.92;;
27383;SDS011;14851;51.166;4.760;2023-05-27T00:06:22;17.02;;;4.22;;
27383;SDS011;14851;51.166;4.760;2023-05-27T00:08:48;15.18;;;4.90;;
27383;SDS011;14851;51.166;4.760;2023-05-27T00:11:13;13.68;;;4.57;;
27383;SDS011;14851;51.166;4.760;2023-05-27T00:13:39;16.52;;;4.85;;
27383;SDS011;14851;51.166;4.760;2023-05-27T00:16:06;23.73;;;4.60;;
27383;SDS011;14851;51.166;4.760;2023-05-27T00:18:32;15.25;;;4.53;;
27383;SDS011;14851;51.166;4.760;2023-05-27T00:21:01;18.55;;;4.70;;
27383;SDS011;14851;51.166;4.760;2023-05-27T00:23:26;24.05;;;4.85;;
27383;SDS011;14851;51.166;4.760;2023-05-27T00:25:53;20.70;;;4.95;;
27383;SDS011;14851;51.166;4.760;2023-05-27T00:28:19;18.98;;;4.93;;
27383;SDS011;14851;51.166;4.760;2023-05-27T00:30:47;16.45;;;4.60;;
27383;SDS011;14851;51.166;4.760;2023-05-27T00:33:13;17.58;;;4.72;;
27383;SDS011;14851;51.166;4.760;2023-05-27T00:35:39;16.98;;;4.75;;
27383;SDS011;14851;51.166;4.760;2023-05-27T00:38:05;17.55;;;5.22;;
27383;SDS011;14851;51.166;4.760;2023-05-27T00:40:31;18.33;;;4.47;;
27383;SDS011;14851;51.166;4.760;2023-05-27T00:43:01;16.02;;;4.40;;
27383;SDS011;14851;51.166;4.760;2023-05-27T00:45:27;16.63;;;4.28;;
27383;SDS011;14851;51.166;4.760;2023-05-27T00:47:53;17.25;;;4.35;;
27383;SDS011;14851;51.166;4.760;2023-05-27T00:50:20;15.00;;;4.53;;
27383;SDS011;14851;51.166;4.760;2023-05-27T00:52:47;21.02;;;4.82;;
27383;SDS011;14851;51.166;4.760;2023-05-27T00:55:13;14.80;;;4.05;;
27383;SDS011;14851;51.166;4.760;2023-05-27T00:57:42;20.40;;;4.55;;
27383;SDS011;14851;51.166;4.760;2023-05-27T01:00:09;15.23;;;4.55;;
27383;SDS011;14851;51.166;4.760;2023-05-27T01:02:36;18.13;;;5.57;;
27383;SDS011;14851;51.166;4.760;2023-05-27T01:05:06;16.90;;;5.03;;
27383;SDS011;14851;51.166;4.760;2023-05-27T01:07:53;18.83;;;5.30;;
27383;SDS011;14851;51.166;4.760;2023-05-27T01:10:49;17.80;;;4.90;;
27383;SDS011;14851;51.166;4.760;2023-05-27T01:13:31;15.20;;;4.25;;
27383;SDS011;14851;51.166;4.760;2023-05-27T01:16:15;20.67;;;4.65;;
27383;SDS011;14851;51.166;4.760;2023-05-27T01:18:46;17.27;;;4.47;;
27383;SDS011;14851;51.166;4.760;2023-05-27T01:21:16;15.45;;;4.47;;
27383;SDS011;14851;51.166;4.760;2023-05-27T01:23:48;17.35;;;4.57;;
27383;SDS011;14851;51.166;4.760;2023-05-27T01:26:14;16.63;;;5.53;;
27383;SDS011;14851;51.166;4.760;2023-05-27T01:28:41;14.13;;;4.43;;
27383;SDS011;14851;51.166;4.760;2023-05-27T01:33:54;20.23;;;5.25;;
27383;SDS011;14851;51.166;4.760;2023-05-27T01:36:29;16.80;;;4.72;;
27383;SDS011;14851;51.166;4.760;2023-05-27T01:39:00;17.73;;;4.65;;
27383;SDS011;14851;51.166;4.760;2023-05-27T01:41:27;16.80;;;4.18;;
27383;SDS011;14851;51.166;4.760;2023-05-27T01:43:53;17.08;;;4.95;;
27383;SDS011;14851;51.166;4.760;2023-05-27T01:46:20;18.90;;;5.78;;
27383;SDS011;14851;51.166;4.760;2023-05-27T01:48:46;18.05;;;4.88;;
27383;SDS011;14851;51.166;4.760;2023-05-27T01:51:12;18.88;;;5.20;;
27383;SDS011;14851;51.166;4.760;2023-05-27T01:53:39;13.50;;;5.15;;
27383;SDS011;14851;51.166;4.760;2023-05-27T01:56:05;14.73;;;4.53;;
27383;SDS011;14851;51.166;4.760;2023-05-27T01:58:32;13.10;;;4.70;;
27383;SDS011;14851;51.166;4.760;2023-05-27T02:00:58;14.57;;;4.38;;
27383;SDS011;14851;51.166;4.760;2023-05-27T02:03:25;14.23;;;4.32;;
27383;SDS011;14851;51.166;4.760;2023-05-27T02:05:52;13.38;;;4.60;;
27383;SDS011;14851;51.166;4.760;2023-05-27T02:08:19;15.93;;;4.65;;
27383;SDS011;14851;51.166;4.760;2023-05-27T02:10:45;19.90;;;5.00;;
27383;SDS011;14851;51.166;4.760;2023-05-27T02:13:11;17.73;;;4.88;;
27383;SDS011;14851;51.166;4.760;2023-05-27T02:15:38;12.88;;;4.03;;
27383;SDS011;14851;51.166;4.760;2023-05-27T02:18:06;17.02;;;4.88;;
27383;SDS011;14851;51.166;4.760;2023-05-27T02:20:31;16.10;;;4.82;;
27383;SDS011;14851;51.166;4.760;2023-05-27T02:22:57;18.27;;;5.25;;
27383;SDS011;14851;51.166;4.760;2023-05-27T02:25:23;11.55;;;4.00;;
27383;SDS011;14851;51.166;4.760;2023-05-27T02:27:52;16.48;;;4.82;;
27383;SDS011;14851;51.166;4.760;2023-05-27T02:30:18;16.77;;;4.50;;
27383;SDS011;14851;51.166;4.760;2023-05-27T02:32:46;18.52;;;5.30;;
27383;SDS011;14851;51.166;4.760;2023-05-27T02:35:13;16.23;;;4.43;;
27383;SDS011;14851;51.166;4.760;2023-05-27T02:37:44;15.40;;;4.80;;
27383;SDS011;14851;51.166;4.760;2023-05-27T02:40:10;18.63;;;5.10;;
27383;SDS011;14851;51.166;4.760;2023-05-27T02:42:36;16.65;;;4.85;;
27383;SDS011;14851;51.166;4.760;2023-05-27T02:45:03;20.70;;;5.75;;
27383;SDS011;14851;51.166;4.760;2023-05-27T02:47:36;15.98;;;5.43;;
27383;SDS011;14851;51.166;4.760;2023-05-27T02:50:03;14.88;;;4.30;;
27383;SDS011;14851;51.166;4.760;2023-05-27T02:52:29;17.45;;;5.45;;
27383;SDS011;14851;51.166;4.760;2023-05-27T02:54:58;15.77;;;4.63;;
27383;SDS011;14851;51.166;4.760;2023-05-27T02:57:24;14.27;;;4.32;;
27383;SDS011;14851;51.166;4.760;2023-05-27T02:59:51;16.02;;;4.60;;
27383;SDS011;14851;51.166;4.760;2023-05-27T03:02:16;13.13;;;4.93;;
27383;SDS011;14851;51.166;4.760;2023-05-27T03:04:43;13.25;;;4.60;;
27383;SDS011;14851;51.166;4.760;2023-05-27T03:07:12;13.70;;;4.85;;
27383;SDS011;14851;51.166;4.760;2023-05-27T03:09:37;15.63;;;5.63;;
27383;SDS011;14851;51.166;4.760;2023-05-27T03:12:03;15.40;;;4.75;;
27383;SDS011;14851;51.166;4.760;2023-05-27T03:14:31;19.40;;;5.03;;
27383;SDS011;14851;51.166;4.760;2023-05-27T03:16:57;16.95;;;5.00;;
27383;SDS011;14851;51.166;4.760;2023-05-27T03:19:26;18.02;;;4.78;;
27383;SDS011;14851;51.166;4.760;2023-05-27T03:21:53;16.92;;;5.07;;
27383;SDS011;14851;51.166;4.760;2023-05-27T03:24:18;16.63;;;4.88;;
27383;SDS011;14851;51.166;4.760;2023-05-27T03:26:49;18.60;;;5.13;;
27383;SDS011;14851;51.166;4.760;2023-05-27T03:29:16;14.73;;;4.47;;
27383;SDS011;14851;51.166;4.760;2023-05-27T03:31:42;15.18;;;4.50;;
27383;SDS011;14851;51.166;4.760;2023-05-27T03:34:11;20.38;;;4.90;;
27383;SDS011;14851;51.166;4.760;2023-05-27T03:36:39;15.27;;;5.13;;
27383;SDS011;14851;51.166;4.760;2023-05-27T03:39:09;18.52;;;5.22;;
27383;SDS011;14851;51.166;4.760;2023-05-27T03:41:38;17.35;;;5.25;;
27383;SDS011;14851;51.166;4.760;2023-05-27T03:44:04;13.25;;;4.13;;
27383;SDS011;14851;51.166;4.760;2023-05-27T03:46:32;14.93;;;4.68;;
27383;SDS011;14851;51.166;4.760;2023-05-27T03:48:58;19.77;;;5.07;;
27383;SDS011;14851;51.166;4.760;2023-05-27T03:51:24;13.27;;;4.88;;
27383;SDS011;14851;51.166;4.760;2023-05-27T03:53:52;18.20;;;5.55;;
27383;SDS011;14851;51.166;4.760;2023-05-27T03:56:18;18.60;;;5.15;;
27383;SDS011;14851;51.166;4.760;2023-05-27T03:58:44;13.18;;;4.72;;
27383;SDS011;14851;51.166;4.760;2023-05-27T04:01:10;14.85;;;5.07;;
27383;SDS011;14851;51.166;4.760;2023-05-27T04:03:36;13.93;;;4.88;;
27383;SDS011;14851;51.166;4.760;2023-05-27T04:06:05;17.83;;;5.05;;
27383;SDS011;14851;51.166;4.760;2023-05-27T04:08:38;17.63;;;5.60;;
27383;SDS011;14851;51.166;4.760;2023-05-27T04:11:09;14.10;;;4.88;;
27383;SDS011;14851;51.166;4.760;2023-05-27T04:13:40;15.13;;;4.90;;
27383;SDS011;14851;51.166;4.760;2023-05-27T04:16:06;16.05;;;4.95;;
27383;SDS011;14851;51.166;4.760;2023-05-27T04:18:35;16.10;;;5.28;;
27383;SDS011;14851;51.166;4.760;2023-05-27T04:21:02;14.57;;;5.45;;
27383;SDS011;14851;51.166;4.760;2023-05-27T04:23:28;16.58;;;5.47;;
27383;SDS011;14851;51.166;4.760;2023-05-27T04:25:54;16.95;;;5.20;;
27383;SDS011;14851;51.166;4.760;2023-05-27T04:28:23;13.50;;;4.57;;
27383;SDS011;14851;51.166;4.760;2023-05-27T04:30:50;16.27;;;4.97;;
27383;SDS011;14851;51.166;4.760;2023-05-27T04:33:36;15.32;;;5.28;;
27383;SDS011;14851;51.166;4.760;2023-05-27T04:36:03;19.75;;;5.13;;
27383;SDS011;14851;51.166;4.760;2023-05-27T04:38:37;17.13;;;5.28;;
27383;SDS011;14851;51.166;4.760;2023-05-27T04:41:06;18.15;;;5.35;;
27383;SDS011;14851;51.166;4.760;2023-05-27T04:44:01;16.70;;;5.47;;
27383;SDS011;14851;51.166;4.760;2023-05-27T04:46:36;13.65;;;5.07;;
27383;SDS011;14851;51.166;4.760;2023-05-27T04:49:04;16.77;;;5.35;;
27383;SDS011;14851;51.166;4.760;2023-05-27T04:51:32;15.43;;;4.97;;
27383;SDS011;14851;51.166;4.760;2023-05-27T04:54:01;17.60;;;5.07;;
27383;SDS011;14851;51.166;4.760;2023-05-27T04:56:28;15.65;;;5.47;;
27383;SDS011;14851;51.166;4.760;2023-05-27T04:58:54;13.50;;;4.47;;
27383;SDS011;14851;51.166;4.760;2023-05-27T05:01:30;16.33;;;5.60;;
27383;SDS011;14851;51.166;4.760;2023-05-27T05:04:22;16.75;;;6.18;;
27383;SDS011;14851;51.166;4.760;2023-05-27T05:07:02;16.10;;;5.70;;
27383;SDS011;14851;51.166;4.760;2023-05-27T05:09:30;12.60;;;5.20;;
27383;SDS011;14851;51.166;4.760;2023-05-27T05:12:06;14.30;;;6.00;;
27383;SDS011;14851;51.166;4.760;2023-05-27T05:17:05;19.17;;;5.65;;
27383;SDS011;14851;51.166;4.760;2023-05-27T05:19:31;11.57;;;5.10;;
27383;SDS011;14851;51.166;4.760;2023-05-27T05:22:00;17.75;;;6.05;;
27383;SDS011;14851;51.166;4.760;2023-05-27T05:24:27;20.20;;;5.63;;
27383;SDS011;14851;51.166;4.760;2023-05-27T05:26:56;17.40;;;6.03;;
27383;SDS011;14851;51.166;4.760;2023-05-27T05:29:22;14.45;;;5.68;;
27383;SDS011;14851;51.166;4.760;2023-05-27T05:31:53;18.13;;;6.32;;
27383;SDS011;14851;51.166;4.760;2023-05-27T05:34:23;18.00;;;6.82;;
27383;SDS011;14851;51.166;4.760;2023-05-27T05:36:54;13.90;;;5.63;;
27383;SDS011;14851;51.166;4.760;2023-05-27T05:39:20;15.70;;;6.32;;
27383;SDS011;14851;51.166;4.760;2023-05-27T05:41:50;16.00;;;6.38;;
27383;SDS011;14851;51.166;4.760;2023-05-27T05:44:18;16.98;;;5.82;;
27383;SDS011;14851;51.166;4.760;2023-05-27T05:46:44;30.05;;;6.43;;
27383;SDS011;14851;51.166;4.760;2023-05-27T05:49:11;15.13;;;6.55;;
27383;SDS011;14851;51.166;4.760;2023-05-27T05:51:41;20.38;;;6.72;;
27383;SDS011;14851;51.166;4.760;2023-05-27T05:54:09;18.55;;;6.38;;
27383;SDS011;14851;51.166;4.760;2023-05-27T05:56:41;22.38;;;6.88;;
27383;SDS011;14851;51.166;4.760;2023-05-27T05:59:07;17.00;;;7.03;;
27383;SDS011;14851;51.166;4.760;2023-05-27T06:01:33;19.95;;;7.07;;
27383;SDS011;14851;51.166;4.760;2023-05-27T06:03:59;18.95;;;6.25;;
27383;SDS011;14851;51.166;4.760;2023-05-27T06:06:33;20.60;;;7.18;;
27383;SDS011;14851;51.166;4.760;2023-05-27T06:09:18;17.83;;;6.57;;
27383;SDS011;14851;51.166;4.760;2023-05-27T06:11:45;18.63;;;5.68;;
27383;SDS011;14851;51.166;4.760;2023-05-27T06:14:12;14.57;;;6.35;;
27383;SDS011;14851;51.166;4.760;2023-05-27T06:16:38;20.27;;;7.00;;
27383;SDS011;14851;51.166;4.760;2023-05-27T06:19:06;17.95;;;6.78;;
27383;SDS011;14851;51.166;4.760;2023-05-27T06:21:33;15.02;;;6.07;;
27383;SDS011;14851;51.166;4.760;2023-05-27T06:24:18;18.08;;;5.90;;
27383;SDS011;14851;51.166;4.760;2023-05-27T06:26:53;18.52;;;6.68;;
27383;SDS011;14851;51.166;4.760;2023-05-27T06:29:19;19.08;;;7.35;;
27383;SDS011;14851;51.166;4.760;2023-05-27T06:31:46;19.88;;;7.25;;
27383;SDS011;14851;51.166;4.760;2023-05-27T06:34:15;15.00;;;6.03;;
27383;SDS011;14851;51.166;4.760;2023-05-27T06:36:42;17.90;;;6.15;;
27383;SDS011;14851;51.166;4.760;2023-05-27T06:39:07;20.15;;;6.70;;
27383;SDS011;14851;51.166;4.760;2023-05-27T06:41:38;21.50;;;7.00;;
27383;SDS011;14851;51.166;4.760;2023-05-27T06:44:32;20.23;;;7.68;;
27383;SDS011;14851;51.166;4.760;2023-05-27T06:47:03;20.20;;;7.05;;
27383;SDS011;14851;51.166;4.760;2023-05-27T06:49:29;21.17;;;7.03;;
27383;SDS011;14851;51.166;4.760;2023-05-27T06:51:57;20.08;;;6.55;;
27383;SDS011;14851;51.166;4.760;2023-05-27T06:54:24;16.08;;;6.45;;
27383;SDS011;14851;51.166;4.760;2023-05-27T06:57:02;21.20;;;6.88;;
27383;SDS011;14851;51.166;4.760;2023-05-27T06:59:49;23.90;;;7.63;;
27383;SDS011;14851;51.166;4.760;2023-05-27T07:02:15;18.60;;;7.03;;
27383;SDS011;14851;51.166;4.760;2023-05-27T07:04:42;14.35;;;6.28;;
27383;SDS011;14851;51.166;4.760;2023-05-27T07:07:08;23.40;;;6.75;;
27383;SDS011;14851;51.166;4.760;2023-05-27T07:09:35;14.20;;;5.03;;
27383;SDS011;14851;51.166;4.760;2023-05-27T07:12:01;19.70;;;7.00;;
27383;SDS011;14851;51.166;4.760;2023-05-27T07:14:51;18.25;;;6.78;;
27383;SDS011;14851;51.166;4.760;2023-05-27T07:17:22;18.30;;;6.78;;
27383;SDS011;14851;51.166;4.760;2023-05-27T07:19:48;18.48;;;6.45;;
27383;SDS011;14851;51.166;4.760;2023-05-27T07:22:18;18.67;;;6.78;;
27383;SDS011;14851;51.166;4.760;2023-05-27T07:24:45;16.98;;;6.10;;
27383;SDS011;14851;51.166;4.760;2023-05-27T07:27:11;17.67;;;6.43;;
27383;SDS011;14851;51.166;4.760;2023-05-27T07:29:42;21.25;;;6.50;;
27383;SDS011;14851;51.166;4.760;2023-05-27T07:32:26;16.73;;;6.72;;
27383;SDS011;14851;51.166;4.760;2023-05-27T07:34:52;17.63;;;6.13;;
27383;SDS011;14851;51.166;4.760;2023-05-27T07:37:22;16.05;;;6.20;;
27383;SDS011;14851;51.166;4.760;2023-05-27T07:39:49;21.25;;;6.57;;
27383;SDS011;14851;51.166;4.760;2023-05-27T07:42:17;15.25;;;5.95;;
27383;SDS011;14851;51.166;4.760;2023-05-27T07:44:43;25.38;;;7.45;;
27383;SDS011;14851;51.166;4.760;2023-05-27T07:47:09;16.45;;;6.63;;
27383;SDS011;14851;51.166;4.760;2023-05-27T07:49:35;14.38;;;5.57;;
27383;SDS011;14851;51.166;4.760;2023-05-27T07:52:19;15.18;;;6.50;;
27383;SDS011;14851;51.166;4.760;2023-05-27T07:54:45;19.70;;;7.10;;
27383;SDS011;14851;51.166;4.760;2023-05-27T07:57:13;20.15;;;6.72;;
27383;SDS011;14851;51.166;4.760;2023-05-27T07:59:42;20.85;;;6.93;;
27383;SDS011;14851;51.166;4.760;2023-05-27T08:02:09;17.52;;;6.88;;
27383;SDS011;14851;51.166;4.760;2023-05-27T08:04:36;14.65;;;5.63;;
27383;SDS011;14851;51.166;4.760;2023-05-27T08:07:21;13.68;;;5.28;;
27383;SDS011;14851;51.166;4.760;2023-05-27T08:10:07;15.68;;;6.07;;
27383;SDS011;14851;51.166;4.760;2023-05-27T08:12:52;13.63;;;5.80;;
27383;SDS011;14851;51.166;4.760;2023-05-27T08:15:30;15.68;;;6.05;;
27383;SDS011;14851;51.166;4.760;2023-05-27T08:18:04;17.02;;;6.15;;
27383;SDS011;14851;51.166;4.760;2023-05-27T08:20:43;19.45;;;6.63;;
27383;SDS011;14851;51.166;4.760;2023-05-27T08:23:31;17.45;;;6.38;;
27383;SDS011;14851;51.166;4.760;2023-05-27T08:26:16;16.02;;;6.28;;
27383;SDS011;14851;51.166;4.760;2023-05-27T08:28:53;18.40;;;5.55;;
27383;SDS011;14851;51.166;4.760;2023-05-27T08:31:40;17.98;;;5.35;;
27383;SDS011;14851;51.166;4.760;2023-05-27T08:34:07;18.45;;;5.75;;
27383;SDS011;14851;51.166;4.760;2023-05-27T08:36:35;18.88;;;6.35;;
27383;SDS011;14851;51.166;4.760;2023-05-27T08:39:01;17.02;;;6.60;;
27383;SDS011;14851;51.166;4.760;2023-05-27T08:41:33;20.45;;;6.60;;
27383;SDS011;14851;51.166;4.760;2023-05-27T08:44:02;20.60;;;6.53;;
27383;SDS011;14851;51.166;4.760;2023-05-27T08:46:31;21.50;;;6.78;;
27383;SDS011;14851;51.166;4.760;2023-05-27T08:48:58;16.75;;;5.80;;
27383;SDS011;14851;51.166;4.760;2023-05-27T08:51:24;14.93;;;5.60;;
27383;SDS011;14851;51.166;4.760;2023-05-27T08:53:52;14.75;;;5.57;;
27383;SDS011;14851;51.166;4.760;2023-05-27T08:56:19;13.77;;;4.47;;
27383;SDS011;14851;51.166;4.760;2023-05-27T08:58:48;20.85;;;6.30;;
27383;SDS011;14851;51.166;4.760;2023-05-27T09:01:17;14.77;;;4.72;;
27383;SDS011;14851;51.166;4.760;2023-05-27T09:03:47;14.40;;;4.63;;
27383;SDS011;14851;51.166;4.760;2023-05-27T09:06:13;16.02;;;6.32;;
27383;SDS011;14851;51.166;4.760;2023-05-27T09:08:41;13.70;;;4.38;;
27383;SDS011;14851;51.166;4.760;2023-05-27T09:11:18;12.38;;;4.80;;
27383;SDS011;14851;51.166;4.760;2023-05-27T09:13:55;6.45;;;2.97;;
27383;SDS011;14851;51.166;4.760;2023-05-27T09:16:22;14.45;;;4.93;;
27383;SDS011;14851;51.166;4.760;2023-05-27T09:18:48;18.17;;;6.15;;
27383;SDS011;14851;51.166;4.760;2023-05-27T09:21:17;14.07;;;5.68;;
27383;SDS011;14851;51.166;4.760;2023-05-27T09:23:45;16.00;;;4.82;;
27383;SDS011;14851;51.166;4.760;2023-05-27T09:26:11;12.60;;;4.65;;
27383;SDS011;14851;51.166;4.760;2023-05-27T09:28:37;16.00;;;5.75;;
27383;SDS011;14851;51.166;4.760;2023-05-27T09:31:05;9.27;;;4.10;;
27383;SDS011;14851;51.166;4.760;2023-05-27T09:33:33;13.10;;;4.03;;
27383;SDS011;14851;51.166;4.760;2023-05-27T09:36:01;17.02;;;5.75;;
27383;SDS011;14851;51.166;4.760;2023-05-27T09:38:32;12.52;;;4.95;;
27383;SDS011;14851;51.166;4.760;2023-05-27T09:40:59;12.20;;;5.55;;
27383;SDS011;14851;51.166;4.760;2023-05-27T09:43:26;12.95;;;4.57;;
27383;SDS011;14851;51.166;4.760;2023-05-27T09:45:58;12.20;;;4.75;;
27383;SDS011;14851;51.166;4.760;2023-05-27T09:48:31;13.30;;;5.72;;
27383;SDS011;14851;51.166;4.760;2023-05-27T09:50:57;16.27;;;6.22;;
27383;SDS011;14851;51.166;4.760;2023-05-27T09:53:25;15.73;;;5.88;;
27383;SDS011;14851;51.166;4.760;2023-05-27T09:55:56;16.38;;;5.30;;
27383;SDS011;14851;51.166;4.760;2023-05-27T09:58:24;17.58;;;6.18;;
27383;SDS011;14851;51.166;4.760;2023-05-27T10:00:53;15.50;;;5.13;;
27383;SDS011;14851;51.166;4.760;2023-05-27T10:03:22;14.98;;;5.90;;
27383;SDS011;14851;51.166;4.760;2023-05-27T10:05:53;19.38;;;5.75;;
27383;SDS011;14851;51.166;4.760;2023-05-27T10:08:21;10.93;;;4.00;;
27383;SDS011;14851;51.166;4.760;2023-05-27T10:10:47;16.67;;;5.20;;
27383;SDS011;14851;51.166;4.760;2023-05-27T10:13:14;14.85;;;4.45;;
27383;SDS011;14851;51.166;4.760;2023-05-27T10:15:47;15.77;;;4.45;;
27383;SDS011;14851;51.166;4.760;2023-05-27T10:18:25;13.75;;;4.70;;
27383;SDS011;14851;51.166;4.760;2023-05-27T10:20:56;13.18;;;5.05;;
27383;SDS011;14851;51.166;4.760;2023-05-27T10:23:26;12.93;;;5.05;;
27383;SDS011;14851;51.166;4.760;2023-05-27T10:31:05;16.83;;;4.63;;
27383;SDS011;14851;51.166;4.760;2023-05-27T10:33:36;19.13;;;5.05;;
27383;SDS011;14851;51.166;4.760;2023-05-27T10:36:07;12.15;;;4.30;;
27383;SDS011;14851;51.166;4.760;2023-05-27T10:38:35;11.90;;;3.53;;
27383;SDS011;14851;51.166;4.760;2023-05-27T10:41:02;13.52;;;5.82;;
27383;SDS011;14851;51.166;4.760;2023-05-27T10:43:30;11.13;;;3.83;;
27383;SDS011;14851;51.166;4.760;2023-05-27T10:46:06;15.17;;;4.53;;
27383;SDS011;14851;51.166;4.760;2023-05-27T10:48:36;8.98;;;4.32;;
27383;SDS011;14851;51.166;4.760;2023-05-27T10:51:04;14.98;;;4.55;;
27383;SDS011;14851;51.166;4.760;2023-05-27T10:53:37;20.45;;;5.78;;
27383;SDS011;14851;51.166;4.760;2023-05-27T10:56:05;13.57;;;4.80;;
27383;SDS011;14851;51.166;4.760;2023-05-27T10:58:37;11.00;;;4.38;;
27383;SDS011;14851;51.166;4.760;2023-05-27T11:01:09;10.75;;;3.00;;
27383;SDS011;14851;51.166;4.760;2023-05-27T11:03:41;17.58;;;5.00;;
27383;SDS011;14851;51.166;4.760;2023-05-27T11:06:11;10.85;;;3.78;;
27383;SDS011;14851;51.166;4.760;2023-05-27T11:08:39;14.68;;;4.15;;
27383;SDS011;14851;51.166;4.760;2023-05-27T11:11:08;12.05;;;3.90;;
27383;SDS011;14851;51.166;4.760;2023-05-27T11:13:36;12.15;;;4.25;;
27383;SDS011;14851;51.166;4.760;2023-05-27T11:16:06;12.18;;;4.53;;
27383;SDS011;14851;51.166;4.760;2023-05-27T11:21:12;16.30;;;4.93;;
27383;SDS011;14851;51.166;4.760;2023-05-27T11:23:44;14.80;;;4.32;;
27383;SDS011;14851;51.166;4.760;2023-05-27T11:26:20;18.02;;;4.38;;
27383;SDS011;14851;51.166;4.760;2023-05-27T11:31:17;10.00;;;3.50;;
27383;SDS011;14851;51.166;4.760;2023-05-27T11:36:16;12.68;;;3.90;;
27383;SDS011;14851;51.166;4.760;2023-05-27T11:41:25;13.43;;;3.45;;
27383;SDS011;14851;51.166;4.760;2023-05-27T11:46:36;7.65;;;2.92;;
27383;SDS011;14851;51.166;4.760;2023-05-27T11:49:07;10.82;;;3.63;;
27383;SDS011;14851;51.166;4.760;2023-05-27T11:51:34;13.85;;;3.53;;
27383;SDS011;14851;51.166;4.760;2023-05-27T11:54:03;11.00;;;3.22;;
27383;SDS011;14851;51.166;4.760;2023-05-27T11:56:30;8.40;;;3.65;;
27383;SDS011;14851;51.166;4.760;2023-05-27T11:58:58;11.43;;;3.78;;
27383;SDS011;14851;51.166;4.760;2023-05-27T12:01:26;9.88;;;3.65;;
27383;SDS011;14851;51.166;4.760;2023-05-27T12:03:55;13.38;;;3.95;;
27383;SDS011;14851;51.166;4.760;2023-05-27T12:06:23;9.68;;;3.28;;
27383;SDS011;14851;51.166;4.760;2023-05-27T12:08:50;6.63;;;2.55;;
27383;SDS011;14851;51.166;4.760;2023-05-27T12:11:17;11.75;;;3.63;;
27383;SDS011;14851;51.166;4.760;2023-05-27T12:13:43;10.15;;;2.95;;
27383;SDS011;14851;51.166;4.760;2023-05-27T12:16:09;9.13;;;3.10;;
27383;SDS011;14851;51.166;4.760;2023-05-27T12:18:35;8.27;;;2.50;;
27383;SDS011;14851;51.166;4.760;2023-05-27T12:21:02;9.95;;;3.30;;
27383;SDS011;14851;51.166;4.760;2023-05-27T12:23:28;9.10;;;3.30;;
27383;SDS011;14851;51.166;4.760;2023-05-27T12:25:54;11.80;;;3.38;;
27383;SDS011;14851;51.166;4.760;2023-05-27T12:28:21;8.40;;;2.20;;
27383;SDS011;14851;51.166;4.760;2023-05-27T12:30:47;13.63;;;3.75;;
27383;SDS011;14851;51.166;4.760;2023-05-27T12:33:15;8.15;;;3.08;;
27383;SDS011;14851;51.166;4.760;2023-05-27T12:35:41;12.70;;;3.53;;
27383;SDS011;14851;51.166;4.760;2023-05-27T12:38:07;7.50;;;2.83;;
27383;SDS011;14851;51.166;4.760;2023-05-27T12:40:37;6.80;;;2.92;;
27383;SDS011;14851;51.166;4.760;2023-05-27T12:43:03;7.75;;;2.88;;
27383;SDS011;14851;51.166;4.760;2023-05-27T12:45:31;6.97;;;3.25;;
27383;SDS011;14851;51.166;4.760;2023-05-27T12:47:58;12.65;;;3.20;;
27383;SDS011;14851;51.166;4.760;2023-05-27T12:50:24;14.05;;;3.88;;
27383;SDS011;14851;51.166;4.760;2023-05-27T12:52:50;7.63;;;3.10;;
27383;SDS011;14851;51.166;4.760;2023-05-27T12:55:17;10.52;;;2.78;;
27383;SDS011;14851;51.166;4.760;2023-05-27T12:57:44;8.57;;;3.03;;
27383;SDS011;14851;51.166;4.760;2023-05-27T13:00:13;5.47;;;2.70;;
27383;SDS011;14851;51.166;4.760;2023-05-27T13:02:40;10.27;;;3.70;;
27383;SDS011;14851;51.166;4.760;2023-05-27T13:05:06;9.02;;;2.67;;
27383;SDS011;14851;51.166;4.760;2023-05-27T13:07:33;9.00;;;2.63;;
27383;SDS011;14851;51.166;4.760;2023-05-27T13:10:00;7.47;;;3.20;;
27383;SDS011;14851;51.166;4.760;2023-05-27T13:12:28;10.77;;;3.25;;
27383;SDS011;14851;51.166;4.760;2023-05-27T13:14:57;8.63;;;2.85;;
27383;SDS011;14851;51.166;4.760;2023-05-27T13:17:29;11.35;;;3.45;;
27383;SDS011;14851;51.166;4.760;2023-05-27T13:19:55;12.63;;;3.17;;
27383;SDS011;14851;51.166;4.760;2023-05-27T13:22:23;8.00;;;3.00;;
27383;SDS011;14851;51.166;4.760;2023-05-27T13:24:51;11.95;;;3.50;;
27383;SDS011;14851;51.166;4.760;2023-05-27T13:27:17;10.38;;;2.97;;
27383;SDS011;14851;51.166;4.760;2023-05-27T13:29:45;10.20;;;3.63;;
27383;SDS011;14851;51.166;4.760;2023-05-27T13:32:12;10.52;;;2.85;;
27383;SDS011;14851;51.166;4.760;2023-05-27T13:34:38;12.25;;;3.38;;
27383;SDS011;14851;51.166;4.760;2023-05-27T13:37:04;10.85;;;3.00;;
27383;SDS011;14851;51.166;4.760;2023-05-27T13:39:30;11.27;;;3.25;;
27383;SDS011;14851;51.166;4.760;2023-05-27T13:41:56;16.00;;;4.20;;
27383;SDS011;14851;51.166;4.760;2023-05-27T13:44:22;11.02;;;2.55;;
27383;SDS011;14851;51.166;4.760;2023-05-27T13:46:48;10.05;;;2.80;;
27383;SDS011;14851;51.166;4.760;2023-05-27T13:49:15;10.05;;;2.92;;
27383;SDS011;14851;51.166;4.760;2023-05-27T13:51:45;9.90;;;3.92;;
27383;SDS011;14851;51.166;4.760;2023-05-27T13:54:12;7.05;;;2.25;;
27383;SDS011;14851;51.166;4.760;2023-05-27T13:56:40;10.60;;;4.13;;
27383;SDS011;14851;51.166;4.760;2023-05-27T13:59:06;13.85;;;3.53;;
27383;SDS011;14851;51.166;4.760;2023-05-27T14:01:35;9.40;;;3.13;;
27383;SDS011;14851;51.166;4.760;2023-05-27T14:04:01;7.00;;;2.03;;
27383;SDS011;14851;51.166;4.760;2023-05-27T14:06:28;8.18;;;3.20;;
27383;SDS011;14851;51.166;4.760;2023-05-27T14:08:54;13.60;;;3.92;;
27383;SDS011;14851;51.166;4.760;2023-05-27T14:11:20;11.93;;;3.33;;
27383;SDS011;14851;51.166;4.760;2023-05-27T14:13:49;8.95;;;2.85;;
27383;SDS011;14851;51.166;4.760;2023-05-27T14:16:15;13.43;;;3.80;;
27383;SDS011;14851;51.166;4.760;2023-05-27T14:18:41;11.20;;;3.70;;
27383;SDS011;14851;51.166;4.760;2023-05-27T14:21:08;16.10;;;4.05;;
27383;SDS011;14851;51.166;4.760;2023-05-27T14:23:35;10.07;;;3.08;;
27383;SDS011;14851;51.166;4.760;2023-05-27T14:26:01;11.15;;;3.60;;
27383;SDS011;14851;51.166;4.760;2023-05-27T14:28:27;12.70;;;4.93;;
27383;SDS011;14851;51.166;4.760;2023-05-27T14:30:53;10.57;;;3.42;;
27383;SDS011;14851;51.166;4.760;2023-05-27T14:33:20;12.30;;;3.63;;
27383;SDS011;14851;51.166;4.760;2023-05-27T14:35:46;13.23;;;4.13;;
27383;SDS011;14851;51.166;4.760;2023-05-27T14:38:11;7.18;;;2.10;;
27383;SDS011;14851;51.166;4.760;2023-05-27T14:40:41;8.57;;;3.40;;
27383;SDS011;14851;51.166;4.760;2023-05-27T14:43:09;8.15;;;3.42;;
27383;SDS011;14851;51.166;4.760;2023-05-27T14:45:37;9.00;;;3.15;;
27383;SDS011;14851;51.166;4.760;2023-05-27T14:48:03;10.68;;;3.38;;
27383;SDS011;14851;51.166;4.760;2023-05-27T14:50:32;7.50;;;2.30;;
27383;SDS011;14851;51.166;4.760;2023-05-27T14:53:00;7.57;;;2.97;;
27383;SDS011;14851;51.166;4.760;2023-05-27T14:55:26;11.50;;;3.20;;
27383;SDS011;14851;51.166;4.760;2023-05-27T14:57:53;5.63;;;1.75;;
27383;SDS011;14851;51.166;4.760;2023-05-27T15:00:19;9.73;;;2.92;;
27383;SDS011;14851;51.166;4.760;2023-05-27T15:02:46;12.80;;;4.07;;
27383;SDS011;14851;51.166;4.760;2023-05-27T15:05:12;7.85;;;2.55;;
27383;SDS011;14851;51.166;4.760;2023-05-27T15:07:42;7.72;;;2.42;;
27383;SDS011;14851;51.166;4.760;2023-05-27T15:10:12;15.93;;;4.07;;